Time;durP1;ratioP1;P1;durP2;ratioP2;P2;SDS_P1;SDS_P2;PMS_P1;PMS_P2;Temp;Humidity;BMP_temperature;BMP_pressure;BME280_temperature;BME280_humidity;BME280_pressure;Samples;Min_cycle;Max_cycle;Signal;HPM_P1;HPM_P2
2023/05/16 00:03:57;;;;;;;22.90;17.70;;;;;;;14.65;69.80;98923.75;7420337;39;21786;31
2023/05/16 00:09:32;;;;;;;23.90;18.85;;;;;;;14.70;69.85;98920.44;7423698;39;20270;31
2023/05/16 00:15:11;;;;;;;24.00;19.05;;;;;;;14.67;70.97;98913.53;7437136;39;21421;31
2023/05/16 00:20:43;;;;;;;25.55;19.35;;;;;;;14.50;70.85;98917.59;7464291;39;21404;31
2023/05/16 00:26:10;;;;;;;27.03;19.33;;;;;;;14.48;70.87;98903.37;7444640;39;20388;31
2023/05/16 00:31:53;;;;;;;28.13;20.63;;;;;;;14.48;70.72;98908.78;7402560;39;20278;31
2023/05/16 00:37:28;;;;;;;24.17;18.50;;;;;;;14.43;71.46;98897.72;7349740;39;21969;31
2023/05/16 00:43:03;;;;;;;26.70;19.60;;;;;;;14.34;71.91;98897.03;7354323;39;20271;31
2023/05/16 00:48:39;;;;;;;25.90;19.30;;;;;;;14.24;72.52;98898.38;7404991;39;20353;31
2023/05/16 00:59:18;;;;;;;26.13;18.87;;;;;;;14.08;73.17;98898.69;7440391;39;20266;31
2023/05/16 01:04:55;;;;;;;24.90;18.87;;;;;;;14.00;73.06;98902.34;7480625;38;21719;31
2023/05/16 01:10:29;;;;;;;26.67;18.90;;;;;;;13.96;73.67;98901.06;7426794;39;20428;31
2023/05/16 01:16:04;;;;;;;27.90;19.77;;;;;;;14.04;73.39;98913.66;7409907;39;20255;31
2023/05/16 01:27:03;;;;;;;26.90;18.67;;;;;;;14.06;73.65;98909.72;7416579;39;20274;31
2023/05/16 01:32:29;;;;;;;22.93;17.20;;;;;;;13.92;73.99;98919.59;7404902;39;21311;31
2023/05/16 01:38:04;;;;;;;26.93;18.63;;;;;;;13.94;73.53;98917.56;7398862;39;21737;31
2023/05/16 01:43:42;;;;;;;23.75;17.67;;;;;;;13.85;74.59;98921.44;7348080;39;20273;31
2023/05/16 01:49:16;;;;;;;24.75;16.65;;;;;;;13.79;74.58;98913.22;7377137;39;21232;31
2023/05/16 02:05:02;;;;;;;19.15;14.05;;;;;;;13.38;77.05;98910.31;7440897;39;21210;31
2023/05/16 02:15:40;;;;;;;21.00;14.70;;;;;;;13.34;76.88;98926.09;7483015;38;20270;31
2023/05/16 02:21:18;;;;;;;21.13;15.77;;;;;;;13.23;77.26;98925.75;7435881;39;21208;31
2023/05/16 02:26:53;;;;;;;20.50;15.60;;;;;;;13.20;77.14;98921.56;7418947;39;20333;31
2023/05/16 02:37:33;;;;;;;20.07;14.87;;;;;;;13.25;76.76;98929.13;7408232;39;20282;31
2023/05/16 02:48:04;;;;;;;19.80;14.45;;;;;;;13.05;76.96;98924.25;7390140;39;20434;31
2023/05/16 03:03:47;;;;;;;18.60;13.17;;;;;;;12.88;78.17;98933.59;7418474;39;20266;31
2023/05/16 03:14:26;;;;;;;20.88;13.76;;;;;;;12.73;78.80;98938.16;7466751;39;21107;31
2023/05/16 03:25:05;;;;;;;20.33;14.07;;;;;;;12.79;78.34;98934.72;7421629;39;21635;31
2023/05/16 03:35:44;;;;;;;18.33;13.70;;;;;;;12.74;77.91;98942.56;7415263;39;20419;31
2023/05/16 03:46:24;;;;;;;18.20;13.53;;;;;;;12.61;79.13;98955.88;7467965;39;20273;31
2023/05/16 03:57:04;;;;;;;16.80;11.67;;;;;;;12.54;79.82;98966.63;7490524;38;20251;31
2023/05/16 04:02:40;;;;;;;16.87;12.53;;;;;;;12.56;79.62;98967.25;7479252;38;21667;31
2023/05/16 04:13:21;;;;;;;20.00;11.87;;;;;;;12.56;79.49;98969.97;7397369;39;21280;31
2023/05/16 04:18:58;;;;;;;16.40;12.20;;;;;;;12.59;79.18;98975.00;7428426;39;20285;31
2023/05/16 04:24:32;;;;;;;12.60;8.17;;;;;;;12.60;79.77;98973.13;7430461;39;20251;31
2023/05/16 04:40:26;;;;;;;15.03;12.03;;;;;;;12.82;78.89;98974.06;7434827;39;20474;31
2023/05/16 04:46:01;;;;;;;15.27;11.63;;;;;;;12.93;78.13;98987.16;7454020;38;21705;31
2023/05/16 04:51:36;;;;;;;17.00;12.05;;;;;;;12.95;78.01;98991.34;7482613;38;21747;31
2023/05/16 04:57:12;;;;;;;17.13;11.50;;;;;;;12.96;77.92;99000.28;7461532;39;21747;31
2023/05/16 05:07:51;;;;;;;16.15;11.20;;;;;;;13.12;76.60;99010.13;7416382;39;20357;31
2023/05/16 05:18:31;;;;;;;14.10;9.85;;;;;;;13.04;77.16;99011.03;7430498;39;20265;31
2023/05/16 05:24:06;;;;;;;14.40;9.50;;;;;;;13.00;76.64;99017.84;7421785;39;21261;31
2023/05/16 05:29:41;;;;;;;12.57;9.50;;;;;;;13.05;77.37;99021.66;7420617;39;21343;31
2023/05/16 05:35:17;;;;;;;12.20;9.20;;;;;;;13.12;77.45;99018.25;7417958;39;20435;31
2023/05/16 05:40:52;;;;;;;7.60;5.90;;;;;;;13.25;76.84;99015.72;7430722;39;20256;31
2023/05/16 05:51:32;;;;;;;11.10;7.87;;;;;;;13.24;77.19;99033.84;7424584;39;20413;31
2023/05/16 06:02:11;;;;;;;11.65;7.40;;;;;;;13.18;76.28;99029.16;7466834;39;20424;31
2023/05/16 06:23:00;;;;;;;15.77;9.90;;;;;;;13.23;76.45;99061.06;7472538;38;20262;31
2023/05/16 06:38:44;;;;;;;6.70;4.90;;;;;;;13.47;75.36;99071.63;7514996;38;20269;31
2023/05/16 06:49:22;;;;;;;3.80;2.50;;;;;;;13.50;73.85;99069.38;7511040;38;20271;31
2023/05/16 06:55:01;;;;;;;4.20;2.70;;;;;;;13.41;74.49;99075.06;7481861;39;20273;31
2023/05/16 07:10:46;;;;;;;2.17;1.97;;;;;;;13.49;73.29;99100.19;7439793;39;20278;31
2023/05/16 07:16:22;;;;;;;1.90;1.57;;;;;;;13.44;73.87;99107.19;7375975;39;21910;31
2023/05/16 07:32:06;;;;;;;1.80;1.50;;;;;;;13.54;71.85;99121.28;7431800;39;20258;31
2023/05/16 07:42:46;;;;;;;1.70;1.40;;;;;;;13.47;70.96;99140.13;7439274;39;20991;31
2023/05/16 07:53:25;;;;;;;1.30;1.10;;;;;;;13.53;69.07;99133.97;7441154;39;20269;31
2023/05/16 07:59:00;;;;;;;1.20;1.10;;;;;;;13.62;69.02;99142.84;7401911;39;20248;31
2023/05/16 08:04:18;;;;;;;1.40;1.30;;;;;;;13.66;69.33;99144.16;7401319;39;20332;31
2023/05/16 08:09:49;;;;;;;1.40;1.10;;;;;;;13.66;69.75;99148.72;7359057;39;20267;31
2023/05/16 08:15:20;;;;;;;1.20;1.10;;;;;;;13.64;69.28;99153.50;7296711;39;20248;31
2023/05/16 08:20:54;;;;;;;1.40;1.00;;;;;;;13.66;68.09;99151.44;7342510;39;20278;31
2023/05/16 08:26:30;;;;;;;2.60;1.50;;;;;;;13.70;69.16;99150.88;7356938;39;20247;31
2023/05/16 08:32:05;;;;;;;1.45;1.20;;;;;;;13.73;69.59;99150.53;7413000;39;20361;31
2023/05/16 08:37:23;;;;;;;1.77;1.00;;;;;;;13.79;69.49;99149.75;7360521;39;20351;31
2023/05/16 08:42:59;;;;;;;1.10;1.00;;;;;;;13.63;68.06;99152.66;7381960;39;20250;31
2023/05/16 08:48:35;;;;;;;1.27;1.13;;;;;;;13.60;69.03;99154.91;7353417;39;20466;31
2023/05/16 08:54:09;;;;;;;1.20;1.10;;;;;;;13.70;68.56;99164.41;7396025;39;20678;31
2023/05/16 08:59:45;;;;;;;1.30;1.00;;;;;;;13.62;69.04;99153.69;7403235;39;20261;31
2023/05/16 09:05:17;;;;;;;1.00;0.90;;;;;;;13.75;69.23;99158.44;7391616;39;20254;31
2023/05/16 09:10:37;;;;;;;1.90;0.95;;;;;;;13.75;68.96;99175.53;7402625;39;20342;31
2023/05/16 09:16:24;;;;;;;1.23;1.00;;;;;;;13.52;67.77;99185.59;7379146;39;21625;31
2023/05/16 09:22:12;;;;;;;1.25;1.15;;;;;;;13.63;68.60;99173.50;7357247;39;21756;31
2023/05/16 09:27:47;;;;;;;0.97;0.97;;;;;;;13.70;68.15;99194.22;7426380;39;20383;31
2023/05/16 09:33:24;;;;;;;1.47;1.10;;;;;;;13.63;68.54;99198.72;7397383;39;20296;31
2023/05/16 09:38:59;;;;;;;1.55;1.05;;;;;;;13.65;68.71;99199.34;7414822;39;20243;31
2023/05/16 09:44:34;;;;;;;0.90;0.90;;;;;;;13.67;68.41;99201.88;7367546;39;20367;31
2023/05/16 09:50:05;;;;;;;0.95;0.90;;;;;;;13.72;68.11;99203.00;7357676;39;21189;31
2023/05/16 09:55:25;;;;;;;2.30;1.00;;;;;;;13.93;68.04;99205.81;7318955;39;21228;31
2023/05/16 10:00:57;;;;;;;1.25;0.90;;;;;;;14.08;66.92;99202.25;7380332;39;20764;31
2023/05/16 10:06:30;;;;;;;1.57;0.90;;;;;;;13.94;66.06;99202.06;7338459;39;21185;31
2023/05/16 10:12:03;;;;;;;3.15;1.10;;;;;;;13.88;66.78;99207.38;7316585;39;21623;31
2023/05/16 10:17:38;;;;;;;1.13;1.03;;;;;;;13.75;66.97;99224.31;7304419;39;20778;31
2023/05/16 10:23:14;;;;;;;1.20;1.10;;;;;;;13.73;67.24;99225.53;7324597;39;20244;31
2023/05/16 10:28:49;;;;;;;6.37;1.80;;;;;;;13.64;67.10;99227.47;7358746;39;20335;31
2023/05/16 10:34:24;;;;;;;2.00;1.10;;;;;;;13.24;68.06;99236.00;7334251;39;20700;31
2023/05/16 10:39:58;;;;;;;1.73;1.10;;;;;;;12.91;68.55;99244.34;7318852;39;20399;31
2023/05/16 10:45:33;;;;;;;2.25;1.30;;;;;;;12.86;69.02;99235.91;7335795;39;20277;31
2023/05/16 10:50:52;;;;;;;1.40;1.20;;;;;;;12.85;69.23;99257.75;7420189;39;20240;31
2023/05/16 10:56:28;;;;;;;2.95;1.45;;;;;;;13.17;69.61;99268.34;7420573;39;20775;31
2023/05/16 11:02:06;;;;;;;3.10;1.70;;;;;;;13.04;69.36;99257.25;7460999;39;20670;31
2023/05/16 11:07:41;;;;;;;3.05;2.00;;;;;;;12.88;69.81;99243.84;7401438;39;20247;31
2023/05/16 11:13:22;;;;;;;2.20;1.20;;;;;;;12.91;69.08;99257.84;7420479;39;20277;31
2023/05/16 11:18:52;;;;;;;1.85;1.10;;;;;;;12.85;68.72;99260.44;7420733;39;21622;31
2023/05/16 11:24:42;;;;;;;4.47;1.30;;;;;;;12.83;69.03;99266.03;7377581;39;20350;31
2023/05/16 11:30:27;;;;;;;2.30;1.20;;;;;;;13.08;68.37;99275.66;7395203;39;20384;31
2023/05/16 11:36:14;;;;;;;2.80;1.40;;;;;;;12.88;68.26;99274.47;7463923;39;20270;31
2023/05/16 11:41:47;;;;;;;1.77;1.40;;;;;;;13.04;67.80;99271.63;7469884;38;20219;31
2023/05/16 11:47:18;;;;;;;2.75;1.50;;;;;;;12.94;67.69;99262.94;7492931;39;20237;31
2023/05/16 11:57:58;;;;;;;3.20;1.60;;;;;;;13.11;67.52;99279.91;7515905;38;20265;31
2023/05/16 12:03:34;;;;;;;6.30;1.80;;;;;;;12.90;67.19;99282.41;7439842;39;20705;31
2023/05/16 12:09:09;;;;;;;2.63;1.40;;;;;;;12.88;67.54;99287.97;7443568;39;20379;31
2023/05/16 12:14:42;;;;;;;3.60;1.87;;;;;;;12.96;67.50;99289.78;7380810;39;20313;31
2023/05/16 12:20:17;;;;;;;3.63;1.80;;;;;;;12.95;67.06;99294.34;7473238;38;20350;31
2023/05/16 12:25:54;;;;;;;4.80;2.10;;;;;;;12.93;66.92;99298.28;7443174;39;20243;31
2023/05/16 12:31:26;;;;;;;4.60;1.70;;;;;;;12.62;66.13;99309.09;7419763;39;20686;31
2023/05/16 12:37:05;;;;;;;3.60;1.93;;;;;;;12.78;66.78;99321.69;7422156;39;20240;31
2023/05/16 12:42:37;;;;;;;4.47;2.17;;;;;;;12.79;65.71;99320.66;7378293;39;20332;31
2023/05/16 12:53:14;;;;;;;6.13;1.93;;;;;;;12.79;64.01;99331.47;7397068;39;20266;31
2023/05/16 12:58:47;;;;;;;7.50;2.00;;;;;;;12.95;62.98;99325.97;7422235;39;20776;31
2023/05/16 13:04:06;;;;;;;4.30;2.50;;;;;;;13.10;62.04;99337.72;7423821;39;20682;31
2023/05/16 13:09:40;;;;;;;4.17;1.60;;;;;;;13.19;56.66;99325.00;7425479;39;21212;31
2023/05/16 13:15:15;;;;;;;5.90;2.05;;;;;;;13.27;58.39;99327.66;7420754;39;20250;31
2023/05/16 13:20:33;;;;;;;7.57;2.50;;;;;;;13.63;58.90;99327.88;7412444;39;21706;31
2023/05/16 13:26:08;;;;;;;5.23;2.00;;;;;;;13.77;55.77;99324.38;7423747;39;20702;31
2023/05/16 13:31:41;;;;;;;6.90;2.00;;;;;;;14.05;57.15;99328.13;7406093;39;20258;31
2023/05/16 13:37:13;;;;;;;4.00;1.55;;;;;;;14.25;55.59;99326.56;7427355;39;21693;31
2023/05/16 13:42:48;;;;;;;4.15;2.00;;;;;;;14.33;55.70;99322.91;7421960;39;20402;31
2023/05/16 13:48:23;;;;;;;5.40;1.90;;;;;;;14.65;55.46;99329.84;7184444;39;21205;31
2023/05/16 13:53:41;;;;;;;6.55;1.95;;;;;;;14.86;54.92;99316.31;7410642;39;21623;31
2023/05/16 13:59:17;;;;;;;6.83;2.27;;;;;;;14.95;54.40;99330.63;7418434;39;20385;31
2023/05/16 14:04:35;;;;;;;9.35;2.00;;;;;;;15.24;54.68;99325.91;7403695;39;20326;31
2023/05/16 14:15:15;;;;;;;3.97;1.73;;;;;;;15.55;53.68;99312.03;7397095;39;22022;31
2023/05/16 14:25:37;;;;;;;4.23;1.80;;;;;;;15.88;53.90;99316.91;7415826;39;20304;31
2023/05/16 14:31:10;;;;;;;6.43;2.10;;;;;;;15.87;55.07;99313.34;7440172;39;21240;31
2023/05/16 14:36:27;;;;;;;7.65;2.05;;;;;;;15.67;55.04;99313.19;7422035;39;21326;31
2023/05/16 14:41:48;;;;;;;6.35;2.00;;;;;;;15.48;54.72;99297.53;7425044;39;20249;31
2023/05/16 14:47:24;;;;;;;5.80;1.93;;;;;;;15.36;54.34;99300.97;7452401;39;20377;31
2023/05/16 14:52:57;;;;;;;4.40;1.80;;;;;;;15.43;55.02;99291.84;7464190;39;21686;31
2023/05/16 14:58:33;;;;;;;8.15;2.20;;;;;;;15.69;54.26;99289.38;7473182;39;20411;31
2023/05/16 15:04:06;;;;;;;6.55;1.90;;;;;;;16.06;51.70;99290.06;7398867;39;20238;31
2023/05/16 15:09:39;;;;;;;3.55;1.65;;;;;;;16.28;51.79;99291.63;7419946;39;21753;31
2023/05/16 15:15:14;;;;;;;4.70;1.65;;;;;;;16.59;48.39;99285.75;7441221;39;20333;31
2023/05/16 15:20:51;;;;;;;4.37;1.63;;;;;;;16.83;46.64;99284.41;7398851;39;20384;31
2023/05/16 15:26:25;;;;;;;9.90;1.80;;;;;;;17.04;46.44;99276.91;7378953;39;20266;31
2023/05/16 15:31:42;;;;;;;2.65;1.30;;;;;;;16.87;44.75;99280.22;7401609;39;20244;31
2023/05/16 15:37:18;;;;;;;3.40;1.40;;;;;;;16.54;43.35;99274.63;7386318;39;20499;31
2023/05/16 15:42:50;;;;;;;5.67;1.50;;;;;;;16.88;43.23;99282.75;7335449;39;20291;31
2023/05/16 15:48:22;;;;;;;4.37;1.60;;;;;;;16.92;43.42;99281.28;7342149;39;21190;31
2023/05/16 15:53:58;;;;;;;3.30;1.70;;;;;;;16.86;40.44;99283.97;7357427;39;21118;31
2023/05/16 15:59:16;;;;;;;4.07;1.30;;;;;;;16.94;42.96;99292.78;7353597;39;20311;31
2023/05/16 16:04:36;;;;;;;5.97;1.73;;;;;;;16.56;42.60;99292.44;7379679;39;21137;31
2023/05/16 16:10:12;;;;;;;7.60;1.60;;;;;;;16.83;42.95;99287.97;7379475;39;21205;31
2023/05/16 16:15:44;;;;;;;2.63;1.40;;;;;;;16.98;42.20;99294.06;7428925;39;21221;31
2023/05/16 16:26:24;;;;;;;3.60;1.50;;;;;;;16.71;40.13;99297.75;7381397;39;20263;31
2023/05/16 16:31:59;;;;;;;7.15;1.90;;;;;;;16.82;42.90;99305.34;7407251;39;20341;31
2023/05/16 16:37:31;;;;;;;4.40;1.80;;;;;;;16.69;43.85;99305.28;7360634;39;20491;31
2023/05/16 16:43:05;;;;;;;4.25;1.50;;;;;;;16.11;40.07;99306.59;7358113;39;20298;31
2023/05/16 16:48:20;;;;;;;2.90;1.30;;;;;;;15.97;41.65;99321.16;7348892;39;21209;31
2023/05/16 16:53:57;;;;;;;5.90;1.40;;;;;;;15.60;40.24;99325.03;7387617;39;20245;31
2023/05/16 16:59:30;;;;;;;4.45;1.65;;;;;;;15.63;42.02;99320.06;7403317;39;20255;31
2023/05/16 17:05:03;;;;;;;2.03;1.30;;;;;;;15.59;41.73;99323.34;7381496;39;20495;31
2023/05/16 17:10:19;;;;;;;2.70;1.50;;;;;;;15.54;42.19;99318.50;7418102;39;20293;31
2023/05/16 17:15:52;;;;;;;4.40;1.80;;;;;;;15.47;42.87;99331.16;7384972;39;20279;31
2023/05/16 17:21:11;;;;;;;3.87;1.50;;;;;;;15.46;42.94;99343.06;7382396;39;20251;31
2023/05/16 17:26:44;;;;;;;3.85;1.35;;;;;;;15.36;43.20;99352.59;7413267;39;20689;31
2023/05/16 17:32:16;;;;;;;3.20;1.50;;;;;;;15.21;42.77;99358.06;7430377;39;21226;31
2023/05/16 17:37:48;;;;;;;2.37;1.30;;;;;;;15.15;43.15;99354.22;7419239;39;21882;31
2023/05/16 17:43:05;;;;;;;2.60;1.60;;;;;;;15.16;44.25;99364.06;7419795;39;20251;31
2023/05/16 17:48:42;;;;;;;2.63;1.40;;;;;;;14.99;41.71;99369.91;7401021;39;20247;31
2023/05/16 17:54:03;;;;;;;2.65;1.40;;;;;;;14.89;41.85;99370.22;7461816;38;20244;31
2023/05/16 17:59:34;;;;;;;3.80;1.40;;;;;;;14.87;43.27;99372.28;7440733;39;21242;31
2023/05/16 18:05:10;;;;;;;2.37;1.30;;;;;;;14.86;42.66;99378.75;7400639;39;20378;31
2023/05/16 18:10:42;;;;;;;1.60;1.20;;;;;;;14.85;43.11;99387.91;7356749;39;20380;31
2023/05/16 18:16:02;;;;;;;4.17;1.53;;;;;;;14.75;43.23;99390.91;7361918;39;20242;31
2023/05/16 18:21:51;;;;;;;2.30;1.40;;;;;;;14.61;43.32;99401.78;7365749;39;21488;31
2023/05/16 18:32:30;;;;;;;3.40;1.40;;;;;;;14.58;44.11;99404.84;7380860;39;20296;31
2023/05/16 18:38:02;;;;;;;6.10;1.40;;;;;;;14.48;44.60;99402.41;7422075;39;21765;31
2023/05/16 18:43:37;;;;;;;4.37;1.50;;;;;;;14.41;46.27;99424.03;7466504;38;20426;31
2023/05/16 18:48:56;;;;;;;3.80;1.30;;;;;;;14.43;45.79;99432.00;7440675;39;20266;31
2023/05/16 18:54:31;;;;;;;2.30;1.20;;;;;;;14.29;44.71;99436.34;7463756;39;20257;31
2023/05/16 18:59:49;;;;;;;2.67;1.40;;;;;;;14.26;46.73;99444.81;7418104;39;20445;31
2023/05/16 19:10:27;;;;;;;1.67;1.20;;;;;;;14.15;47.42;99447.97;7420627;39;20259;31
2023/05/16 19:15:59;;;;;;;2.35;1.20;;;;;;;14.03;47.77;99457.59;7357608;39;21787;31
2023/05/16 19:26:36;;;;;;;3.60;1.20;;;;;;;13.99;48.66;99465.25;7398415;39;20263;31
2023/05/16 19:37:15;;;;;;;4.23;2.20;;;;;;;13.66;48.66;99481.88;7383842;39;20271;31
2023/05/16 19:42:48;;;;;;;3.10;1.55;;;;;;;13.53;48.79;99491.47;7423300;39;20254;31
2023/05/16 19:48:20;;;;;;;4.60;1.60;;;;;;;13.38;49.49;99509.47;7406388;39;21235;31
2023/05/16 19:53:52;;;;;;;3.83;1.60;;;;;;;13.48;49.93;99520.94;7420425;39;20259;31
2023/05/16 20:04:30;;;;;;;3.90;1.70;;;;;;;13.54;49.66;99528.34;7427388;39;20272;31
2023/05/16 20:14:52;;;;;;;4.73;1.53;;;;;;;13.19;49.46;99545.09;7492173;38;22031;31
2023/05/16 20:20:29;;;;;;;2.40;1.50;;;;;;;13.17;49.50;99539.00;7465055;39;20262;31
2023/05/16 20:25:50;;;;;;;3.10;1.50;;;;;;;13.23;50.24;99551.00;7468035;39;20249;31
2023/05/16 20:31:11;;;;;;;3.20;1.20;;;;;;;13.37;50.33;99553.84;7463341;39;20339;31
2023/05/16 20:36:47;;;;;;;3.00;1.40;;;;;;;13.39;50.37;99545.50;7464300;39;20246;31
2023/05/16 20:42:23;;;;;;;2.50;1.40;;;;;;;13.34;50.27;99551.44;7466001;39;20235;31
2023/05/16 20:47:41;;;;;;;2.67;1.20;;;;;;;13.25;50.30;99560.63;7410657;39;21635;31
2023/05/16 20:53:14;;;;;;;3.10;1.35;;;;;;;13.11;50.07;99566.78;7415121;39;21612;31
2023/05/16 20:58:39;;;;;;;5.90;1.73;;;;;;;13.05;51.07;99570.12;7421125;39;20390;31
2023/05/16 21:04:06;;;;;;;6.75;1.90;;;;;;;12.83;50.58;99569.00;7417255;39;20350;31
2023/05/16 21:09:40;;;;;;;5.40;1.50;;;;;;;12.74;51.45;99561.06;7253014;39;21079;31
2023/05/16 21:15:01;;;;;;;5.25;1.60;;;;;;;12.67;51.84;99560.94;7432630;39;20253;31
2023/05/16 21:20:34;;;;;;;4.60;1.37;;;;;;;12.71;51.60;99583.06;7442713;39;20253;31
2023/05/16 21:26:07;;;;;;;5.03;1.40;;;;;;;12.63;51.55;99582.06;7481852;39;20346;31
2023/05/16 21:36:30;;;;;;;2.03;1.50;;;;;;;12.58;52.61;99583.59;7417751;39;20281;31
2023/05/16 21:42:02;;;;;;;3.70;1.60;;;;;;;12.54;52.59;99588.50;7437037;39;20306;31
2023/05/16 21:52:54;;;;;;;3.07;1.50;;;;;;;12.44;52.96;99606.72;7443483;39;20274;31
2023/05/16 21:58:27;;;;;;;3.60;1.60;;;;;;;12.40;54.01;99601.84;7481275;38;20682;31
2023/05/16 22:04:00;;;;;;;6.10;1.70;;;;;;;12.19;54.37;99616.69;7488558;39;21667;31
2023/05/16 22:09:18;;;;;;;3.85;1.45;;;;;;;12.22;54.43;99622.75;7483240;38;20285;31
2023/05/16 22:14:54;;;;;;;2.75;1.40;;;;;;;12.14;55.02;99615.50;7488967;38;20374;31
2023/05/16 22:20:29;;;;;;;1.67;1.20;;;;;;;12.08;54.56;99632.34;7509055;38;20277;31
2023/05/16 22:31:11;;;;;;;3.60;1.40;;;;;;;11.71;56.15;99621.94;7516064;38;20275;31
2023/05/16 22:36:32;;;;;;;3.53;1.70;;;;;;;11.69;56.98;99630.19;7491232;38;20362;31
2023/05/16 22:47:10;;;;;;;4.15;1.70;;;;;;;11.53;57.14;99627.44;7441746;39;20352;31
2023/05/16 22:57:32;;;;;;;4.15;1.70;;;;;;;11.54;56.82;99641.78;7418684;39;20282;31
2023/05/16 23:03:05;;;;;;;4.20;1.80;;;;;;;11.50;57.42;99637.69;7422302;39;20439;31
2023/05/16 23:08:23;;;;;;;6.33;1.77;;;;;;;11.60;57.71;99641.97;7463266;39;21589;31
2023/05/16 23:13:40;;;;;;;5.70;1.97;;;;;;;11.52;57.36;99646.47;7419447;39;20418;31
2023/05/16 23:19:13;;;;;;;3.40;1.97;;;;;;;11.44;59.12;99650.00;7336545;39;21396;31
2023/05/16 23:24:30;;;;;;;7.70;2.47;;;;;;;11.39;58.83;99652.31;7324855;39;20278;31
2023/05/16 23:29:51;;;;;;;4.35;1.87;;;;;;;11.45;58.13;99662.47;7336750;39;20248;31
2023/05/16 23:35:24;;;;;;;4.30;1.90;;;;;;;11.46;58.69;99669.56;7340668;39;20251;31
2023/05/16 23:40:41;;;;;;;5.40;1.90;;;;;;;11.49;57.75;99668.41;7346537;39;20247;31
2023/05/16 23:45:58;;;;;;;4.25;1.80;;;;;;;11.67;58.63;99675.38;7354838;39;21182;31
2023/05/16 23:51:31;;;;;;;5.50;2.00;;;;;;;11.71;58.22;99679.50;7396838;39;20379;31
2023/05/16 23:56:48;;;;;;;4.70;1.90;;;;;;;11.68;59.06;99687.03;7426635;39;20372;31
